sensor_id;sensor_type;location;lat;lon;timestamp;temperature;humidity
43679;DHT22;29279;50.858;4.392;2022-08-04T00:00:14;27.10;91.00
43679;DHT22;29279;50.858;4.392;2022-08-04T00:05:51;27.10;91.10
43679;DHT22;29279;50.858;4.392;2022-08-04T00:11:07;27.00;91.20
43679;DHT22;29279;50.858;4.392;2022-08-04T00:13:37;27.00;91.40
43679;DHT22;29279;50.858;4.392;2022-08-04T00:16:07;27.00;91.60
43679;DHT22;29279;50.858;4.392;2022-08-04T00:18:44;26.90;91.70
43679;DHT22;29279;50.858;4.392;2022-08-04T00:21:15;26.90;91.80
43679;DHT22;29279;50.858;4.392;2022-08-04T00:23:43;26.90;92.00
43679;DHT22;29279;50.858;4.392;2022-08-04T00:26:09;26.80;92.00
43679;DHT22;29279;50.858;4.392;2022-08-04T00:28:36;26.80;92.00
43679;DHT22;29279;50.858;4.392;2022-08-04T00:31:04;26.80;92.20
43679;DHT22;29279;50.858;4.392;2022-08-04T00:33:30;26.80;92.30
43679;DHT22;29279;50.858;4.392;2022-08-04T00:35:57;26.70;92.20
43679;DHT22;29279;50.858;4.392;2022-08-04T00:38:24;26.70;92.50
43679;DHT22;29279;50.858;4.392;2022-08-04T00:43:32;26.60;92.60
43679;DHT22;29279;50.858;4.392;2022-08-04T00:51:46;26.50;92.90
43679;DHT22;29279;50.858;4.392;2022-08-04T00:57:24;26.40;93.20
43679;DHT22;29279;50.858;4.392;2022-08-04T01:02:28;26.30;93.20
43679;DHT22;29279;50.858;4.392;2022-08-04T01:05:14;26.30;93.50
43679;DHT22;29279;50.858;4.392;2022-08-04T01:31:39;26.20;94.40
43679;DHT22;29279;50.858;4.392;2022-08-04T01:34:11;26.10;94.50
43679;DHT22;29279;50.858;4.392;2022-08-04T01:36:41;26.10;94.60
43679;DHT22;29279;50.858;4.392;2022-08-04T01:39:08;26.00;94.70
43679;DHT22;29279;50.858;4.392;2022-08-04T01:42:01;26.00;94.70
43679;DHT22;29279;50.858;4.392;2022-08-04T01:44:30;26.00;95.10
43679;DHT22;29279;50.858;4.392;2022-08-04T01:46:59;25.90;95.10
43679;DHT22;29279;50.858;4.392;2022-08-04T01:49:28;25.90;95.30
43679;DHT22;29279;50.858;4.392;2022-08-04T01:51:56;25.80;95.60
43679;DHT22;29279;50.858;4.392;2022-08-04T01:54:23;25.80;96.00
43679;DHT22;29279;50.858;4.392;2022-08-04T01:56:50;25.60;96.10
43679;DHT22;29279;50.858;4.392;2022-08-04T01:59:20;25.60;95.90
43679;DHT22;29279;50.858;4.392;2022-08-04T02:01:46;25.70;96.10
43679;DHT22;29279;50.858;4.392;2022-08-04T02:04:14;25.70;96.20
43679;DHT22;29279;50.858;4.392;2022-08-04T02:18:30;25.50;96.60
43679;DHT22;29279;50.858;4.392;2022-08-04T02:20:59;25.40;96.50
43679;DHT22;29279;50.858;4.392;2022-08-04T02:23:34;25.50;96.60
43679;DHT22;29279;50.858;4.392;2022-08-04T02:26:03;25.50;96.50
43679;DHT22;29279;50.858;4.392;2022-08-04T02:28:47;25.50;96.30
43679;DHT22;29279;50.858;4.392;2022-08-04T02:31:26;25.50;96.30
43679;DHT22;29279;50.858;4.392;2022-08-04T02:36:47;25.50;96.40
43679;DHT22;29279;50.858;4.392;2022-08-04T02:39:18;25.50;96.40
43679;DHT22;29279;50.858;4.392;2022-08-04T02:41:46;25.50;96.50
43679;DHT22;29279;50.858;4.392;2022-08-04T02:44:13;25.40;96.50
43679;DHT22;29279;50.858;4.392;2022-08-04T02:46:43;25.50;96.40
43679;DHT22;29279;50.858;4.392;2022-08-04T02:49:11;25.40;96.30
43679;DHT22;29279;50.858;4.392;2022-08-04T02:51:42;25.40;96.40
43679;DHT22;29279;50.858;4.392;2022-08-04T02:54:09;25.30;96.60
43679;DHT22;29279;50.858;4.392;2022-08-04T02:56:36;25.30;96.60
43679;DHT22;29279;50.858;4.392;2022-08-04T02:59:05;25.30;96.50
43679;DHT22;29279;50.858;4.392;2022-08-04T03:01:31;25.30;96.70
43679;DHT22;29279;50.858;4.392;2022-08-04T03:20:44;25.10;96.90
43679;DHT22;29279;50.858;4.392;2022-08-04T03:31:17;25.00;97.30
43679;DHT22;29279;50.858;4.392;2022-08-04T03:34:15;24.90;97.20
43679;DHT22;29279;50.858;4.392;2022-08-04T03:42:38;24.80;97.40
43679;DHT22;29279;50.858;4.392;2022-08-04T03:46:01;24.80;97.40
43679;DHT22;29279;50.858;4.392;2022-08-04T03:51:37;24.80;97.40
43679;DHT22;29279;50.858;4.392;2022-08-04T04:03:00;24.80;97.00
43679;DHT22;29279;50.858;4.392;2022-08-04T04:06:05;24.70;96.80
43679;DHT22;29279;50.858;4.392;2022-08-04T04:11:38;24.60;96.50
43679;DHT22;29279;50.858;4.392;2022-08-04T04:26:17;24.60;95.90
43679;DHT22;29279;50.858;4.392;2022-08-04T04:42:48;24.50;95.80
43679;DHT22;29279;50.858;4.392;2022-08-04T04:45:39;24.50;95.80
43679;DHT22;29279;50.858;4.392;2022-08-04T04:48:23;24.40;95.90
43679;DHT22;29279;50.858;4.392;2022-08-04T04:57:06;24.40;96.10
43679;DHT22;29279;50.858;4.392;2022-08-04T04:59:35;24.50;96.20
43679;DHT22;29279;50.858;4.392;2022-08-04T05:07:55;24.30;96.40
43679;DHT22;29279;50.858;4.392;2022-08-04T05:15:28;24.30;96.50
43679;DHT22;29279;50.858;4.392;2022-08-04T05:17:56;24.50;96.40
43679;DHT22;29279;50.858;4.392;2022-08-04T05:20:33;24.50;96.40
43679;DHT22;29279;50.858;4.392;2022-08-04T05:23:02;24.60;96.30
43679;DHT22;29279;50.858;4.392;2022-08-04T05:25:49;24.60;96.40
43679;DHT22;29279;50.858;4.392;2022-08-04T05:28:19;24.60;96.40
43679;DHT22;29279;50.858;4.392;2022-08-04T05:30:56;24.60;96.50
43679;DHT22;29279;50.858;4.392;2022-08-04T05:33:33;24.70;96.40
43679;DHT22;29279;50.858;4.392;2022-08-04T05:36:05;24.70;96.50
43679;DHT22;29279;50.858;4.392;2022-08-04T05:38:38;24.70;96.50
43679;DHT22;29279;50.858;4.392;2022-08-04T05:41:07;24.70;96.40
43679;DHT22;29279;50.858;4.392;2022-08-04T05:43:35;24.80;96.40
43679;DHT22;29279;50.858;4.392;2022-08-04T05:46:01;24.80;96.30
43679;DHT22;29279;50.858;4.392;2022-08-04T05:48:29;24.90;96.20
43679;DHT22;29279;50.858;4.392;2022-08-04T05:50:57;24.90;96.30
43679;DHT22;29279;50.858;4.392;2022-08-04T05:53:24;25.00;96.40
43679;DHT22;29279;50.858;4.392;2022-08-04T05:55:51;25.10;96.40
43679;DHT22;29279;50.858;4.392;2022-08-04T05:58:17;25.10;96.30
43679;DHT22;29279;50.858;4.392;2022-08-04T06:00:45;25.20;96.30
43679;DHT22;29279;50.858;4.392;2022-08-04T06:03:12;25.30;96.30
43679;DHT22;29279;50.858;4.392;2022-08-04T06:05:41;25.30;96.10
43679;DHT22;29279;50.858;4.392;2022-08-04T06:08:07;25.40;96.20
43679;DHT22;29279;50.858;4.392;2022-08-04T06:10:36;25.40;96.10
43679;DHT22;29279;50.858;4.392;2022-08-04T06:13:06;25.40;96.30
43679;DHT22;29279;50.858;4.392;2022-08-04T06:15:38;25.40;96.30
43679;DHT22;29279;50.858;4.392;2022-08-04T06:18:06;25.50;96.30
43679;DHT22;29279;50.858;4.392;2022-08-04T06:20:34;25.50;96.30
43679;DHT22;29279;50.858;4.392;2022-08-04T06:23:13;25.50;96.30
43679;DHT22;29279;50.858;4.392;2022-08-04T06:25:46;25.50;96.30
43679;DHT22;29279;50.858;4.392;2022-08-04T06:28:14;25.50;96.40
43679;DHT22;29279;50.858;4.392;2022-08-04T06:30:41;25.50;96.50
43679;DHT22;29279;50.858;4.392;2022-08-04T06:33:15;25.50;96.70
43679;DHT22;29279;50.858;4.392;2022-08-04T06:35:53;25.50;96.60
43679;DHT22;29279;50.858;4.392;2022-08-04T06:38:22;25.50;96.60
43679;DHT22;29279;50.858;4.392;2022-08-04T06:40:48;25.60;96.60
43679;DHT22;29279;50.858;4.392;2022-08-04T06:43:15;25.60;96.60
43679;DHT22;29279;50.858;4.392;2022-08-04T06:45:42;25.50;96.70
43679;DHT22;29279;50.858;4.392;2022-08-04T06:48:12;25.50;96.80
43679;DHT22;29279;50.858;4.392;2022-08-04T06:50:41;25.50;96.80
43679;DHT22;29279;50.858;4.392;2022-08-04T06:53:08;25.70;96.90
43679;DHT22;29279;50.858;4.392;2022-08-04T06:55:34;25.80;96.80
43679;DHT22;29279;50.858;4.392;2022-08-04T06:58:01;25.90;96.80
43679;DHT22;29279;50.858;4.392;2022-08-04T07:00:27;25.90;96.80
43679;DHT22;29279;50.858;4.392;2022-08-04T07:02:54;25.90;96.80
43679;DHT22;29279;50.858;4.392;2022-08-04T07:05:20;25.90;97.00
43679;DHT22;29279;50.858;4.392;2022-08-04T07:07:47;26.00;96.80
43679;DHT22;29279;50.858;4.392;2022-08-04T07:10:14;26.10;96.60
43679;DHT22;29279;50.858;4.392;2022-08-04T07:12:40;26.20;96.40
43679;DHT22;29279;50.858;4.392;2022-08-04T07:15:07;26.20;96.30
43679;DHT22;29279;50.858;4.392;2022-08-04T07:17:36;26.40;96.20
43679;DHT22;29279;50.858;4.392;2022-08-04T07:20:06;26.40;96.10
43679;DHT22;29279;50.858;4.392;2022-08-04T07:22:32;26.50;95.90
43679;DHT22;29279;50.858;4.392;2022-08-04T07:24:59;26.60;95.80
43679;DHT22;29279;50.858;4.392;2022-08-04T07:27:25;26.60;95.70
43679;DHT22;29279;50.858;4.392;2022-08-04T07:29:51;26.70;95.50
43679;DHT22;29279;50.858;4.392;2022-08-04T07:32:21;26.80;95.30
43679;DHT22;29279;50.858;4.392;2022-08-04T07:34:48;26.90;95.20
43679;DHT22;29279;50.858;4.392;2022-08-04T07:37:14;27.10;95.20
43679;DHT22;29279;50.858;4.392;2022-08-04T07:39:40;27.20;94.90
43679;DHT22;29279;50.858;4.392;2022-08-04T07:42:06;27.30;94.80
43679;DHT22;29279;50.858;4.392;2022-08-04T07:44:33;27.30;94.80
43679;DHT22;29279;50.858;4.392;2022-08-04T07:47:00;27.30;94.60
43679;DHT22;29279;50.858;4.392;2022-08-04T07:49:26;27.30;94.70
43679;DHT22;29279;50.858;4.392;2022-08-04T07:51:53;27.20;94.60
43679;DHT22;29279;50.858;4.392;2022-08-04T07:54:19;27.20;94.80
43679;DHT22;29279;50.858;4.392;2022-08-04T07:56:46;27.10;94.90
43679;DHT22;29279;50.858;4.392;2022-08-04T07:59:16;27.20;95.00
43679;DHT22;29279;50.858;4.392;2022-08-04T08:01:43;27.20;94.70
43679;DHT22;29279;50.858;4.392;2022-08-04T08:04:10;27.30;94.90
43679;DHT22;29279;50.858;4.392;2022-08-04T08:06:37;27.30;94.80
43679;DHT22;29279;50.858;4.392;2022-08-04T08:09:14;27.30;94.70
43679;DHT22;29279;50.858;4.392;2022-08-04T08:11:49;27.30;94.80
43679;DHT22;29279;50.858;4.392;2022-08-04T08:14:16;27.20;95.00
43679;DHT22;29279;50.858;4.392;2022-08-04T08:16:42;27.00;95.40
43679;DHT22;29279;50.858;4.392;2022-08-04T08:19:08;26.90;95.80
43679;DHT22;29279;50.858;4.392;2022-08-04T08:21:34;26.70;96.00
43679;DHT22;29279;50.858;4.392;2022-08-04T08:23:59;26.40;96.50
43679;DHT22;29279;50.858;4.392;2022-08-04T08:26:26;26.20;97.00
43679;DHT22;29279;50.858;4.392;2022-08-04T08:28:52;26.00;97.30
43679;DHT22;29279;50.858;4.392;2022-08-04T08:31:18;25.90;97.60
43679;DHT22;29279;50.858;4.392;2022-08-04T08:33:45;25.90;97.70
43679;DHT22;29279;50.858;4.392;2022-08-04T08:36:24;26.00;97.70
43679;DHT22;29279;50.858;4.392;2022-08-04T09:10:43;25.90;98.50
43679;DHT22;29279;50.858;4.392;2022-08-04T09:18:53;25.90;99.80
43679;DHT22;29279;50.858;4.392;2022-08-04T09:21:36;25.90;99.90
43679;DHT22;29279;50.858;4.392;2022-08-04T09:24:15;25.90;99.90
43679;DHT22;29279;50.858;4.392;2022-08-04T09:26:47;25.90;99.90
43679;DHT22;29279;50.858;4.392;2022-08-04T09:35:22;25.90;99.90
43679;DHT22;29279;50.858;4.392;2022-08-04T09:37:59;25.90;99.90
43679;DHT22;29279;50.858;4.392;2022-08-04T09:46:12;26.30;99.90
43679;DHT22;29279;50.858;4.392;2022-08-04T09:59:42;26.50;99.60
43679;DHT22;29279;50.858;4.392;2022-08-04T10:02:12;26.70;99.40
43679;DHT22;29279;50.858;4.392;2022-08-04T10:04:41;26.80;99.20
43679;DHT22;29279;50.858;4.392;2022-08-04T10:10:31;27.00;98.90
43679;DHT22;29279;50.858;4.392;2022-08-04T10:26:51;29.10;95.80
43679;DHT22;29279;50.858;4.392;2022-08-04T10:29:30;28.90;96.00
43679;DHT22;29279;50.858;4.392;2022-08-04T10:35:07;29.30;95.60
43679;DHT22;29279;50.858;4.392;2022-08-04T10:37:59;29.60;95.20
43679;DHT22;29279;50.858;4.392;2022-08-04T10:40:38;29.60;94.90
43679;DHT22;29279;50.858;4.392;2022-08-04T10:48:43;30.50;93.70
43679;DHT22;29279;50.858;4.392;2022-08-04T10:54:07;31.80;92.20
43679;DHT22;29279;50.858;4.392;2022-08-04T10:56:53;31.70;91.40
43679;DHT22;29279;50.858;4.392;2022-08-04T11:01:56;32.30;90.90
43679;DHT22;29279;50.858;4.392;2022-08-04T11:06:54;32.90;88.90
43679;DHT22;29279;50.858;4.392;2022-08-04T11:09:21;32.40;89.40
43679;DHT22;29279;50.858;4.392;2022-08-04T11:11:56;32.20;89.20
43679;DHT22;29279;50.858;4.392;2022-08-04T11:14:52;31.90;89.80
43679;DHT22;29279;50.858;4.392;2022-08-04T11:17:42;31.90;89.80
43679;DHT22;29279;50.858;4.392;2022-08-04T11:20:29;32.00;89.50
43679;DHT22;29279;50.858;4.392;2022-08-04T11:23:17;32.20;88.90
43679;DHT22;29279;50.858;4.392;2022-08-04T11:25:58;32.10;88.60
43679;DHT22;29279;50.858;4.392;2022-08-04T11:31:30;31.70;90.10
43679;DHT22;29279;50.858;4.392;2022-08-04T11:34:19;31.50;90.10
43679;DHT22;29279;50.858;4.392;2022-08-04T11:37:12;31.30;90.40
43679;DHT22;29279;50.858;4.392;2022-08-04T11:39:59;31.20;90.20
43679;DHT22;29279;50.858;4.392;2022-08-04T11:42:35;31.10;90.30
43679;DHT22;29279;50.858;4.392;2022-08-04T11:45:07;31.00;90.60
43679;DHT22;29279;50.858;4.392;2022-08-04T11:50:09;31.30;90.50
43679;DHT22;29279;50.858;4.392;2022-08-04T11:52:39;31.60;90.30
43679;DHT22;29279;50.858;4.392;2022-08-04T11:55:10;31.80;89.60
43679;DHT22;29279;50.858;4.392;2022-08-04T11:57:39;32.10;88.80
43679;DHT22;29279;50.858;4.392;2022-08-04T12:00:09;32.50;88.30
43679;DHT22;29279;50.858;4.392;2022-08-04T12:05:34;33.40;86.20
43679;DHT22;29279;50.858;4.392;2022-08-04T12:08:25;34.30;84.40
43679;DHT22;29279;50.858;4.392;2022-08-04T12:13:48;35.30;80.50
43679;DHT22;29279;50.858;4.392;2022-08-04T12:18:49;35.50;78.20
43679;DHT22;29279;50.858;4.392;2022-08-04T12:21:39;36.20;77.10
43679;DHT22;29279;50.858;4.392;2022-08-04T12:24:19;37.40;75.50
43679;DHT22;29279;50.858;4.392;2022-08-04T12:26:56;38.20;74.30
43679;DHT22;29279;50.858;4.392;2022-08-04T12:29:26;38.80;73.10
43679;DHT22;29279;50.858;4.392;2022-08-04T12:32:19;39.10;72.20
43679;DHT22;29279;50.858;4.392;2022-08-04T12:37:56;39.10;71.10
43679;DHT22;29279;50.858;4.392;2022-08-04T12:40:32;39.50;70.70
43679;DHT22;29279;50.858;4.392;2022-08-04T12:43:09;38.90;70.40
43679;DHT22;29279;50.858;4.392;2022-08-04T12:45:42;38.80;70.90
43679;DHT22;29279;50.858;4.392;2022-08-04T12:48:09;38.80;70.80
43679;DHT22;29279;50.858;4.392;2022-08-04T12:50:35;38.80;71.00
43679;DHT22;29279;50.858;4.392;2022-08-04T12:53:10;39.40;70.40
43679;DHT22;29279;50.858;4.392;2022-08-04T12:55:38;39.90;69.20
43679;DHT22;29279;50.858;4.392;2022-08-04T12:58:16;39.90;68.20
43679;DHT22;29279;50.858;4.392;2022-08-04T13:00:45;39.20;68.80
43679;DHT22;29279;50.858;4.392;2022-08-04T13:03:15;38.40;69.50
43679;DHT22;29279;50.858;4.392;2022-08-04T13:05:42;37.20;70.50
43679;DHT22;29279;50.858;4.392;2022-08-04T13:08:10;36.70;71.30
43679;DHT22;29279;50.858;4.392;2022-08-04T13:10:43;37.60;71.10
43679;DHT22;29279;50.858;4.392;2022-08-04T13:13:18;38.60;70.00
43679;DHT22;29279;50.858;4.392;2022-08-04T13:16:03;39.40;68.20
43679;DHT22;29279;50.858;4.392;2022-08-04T13:18:33;39.50;68.20
43679;DHT22;29279;50.858;4.392;2022-08-04T13:21:15;39.90;67.30
43679;DHT22;29279;50.858;4.392;2022-08-04T13:23:42;39.70;67.80
43679;DHT22;29279;50.858;4.392;2022-08-04T13:26:14;39.50;67.20
43679;DHT22;29279;50.858;4.392;2022-08-04T13:28:43;39.40;67.50
43679;DHT22;29279;50.858;4.392;2022-08-04T13:31:14;38.70;67.40
43679;DHT22;29279;50.858;4.392;2022-08-04T13:33:43;38.30;68.00
43679;DHT22;29279;50.858;4.392;2022-08-04T13:36:10;38.10;68.60
43679;DHT22;29279;50.858;4.392;2022-08-04T13:38:39;37.90;69.00
43679;DHT22;29279;50.858;4.392;2022-08-04T13:41:09;38.20;68.80
43679;DHT22;29279;50.858;4.392;2022-08-04T13:43:46;38.00;68.60
43679;DHT22;29279;50.858;4.392;2022-08-04T13:46:16;37.90;69.10
43679;DHT22;29279;50.858;4.392;2022-08-04T13:48:43;37.50;69.40
43679;DHT22;29279;50.858;4.392;2022-08-04T13:51:11;36.80;70.20
43679;DHT22;29279;50.858;4.392;2022-08-04T13:53:38;36.40;71.10
43679;DHT22;29279;50.858;4.392;2022-08-04T13:56:06;36.40;71.00
43679;DHT22;29279;50.858;4.392;2022-08-04T13:58:40;36.10;71.40
43679;DHT22;29279;50.858;4.392;2022-08-04T14:01:27;35.70;71.60
43679;DHT22;29279;50.858;4.392;2022-08-04T14:06:28;36.50;71.60
43679;DHT22;29279;50.858;4.392;2022-08-04T14:08:56;37.20;70.50
43679;DHT22;29279;50.858;4.392;2022-08-04T14:11:43;36.60;70.80
43679;DHT22;29279;50.858;4.392;2022-08-04T14:14:22;36.00;71.50
43679;DHT22;29279;50.858;4.392;2022-08-04T14:17:10;35.70;71.90
43679;DHT22;29279;50.858;4.392;2022-08-04T14:19:47;35.60;72.00
43679;DHT22;29279;50.858;4.392;2022-08-04T14:27:44;37.20;69.50
43679;DHT22;29279;50.858;4.392;2022-08-04T14:33:07;38.30;68.10
43679;DHT22;29279;50.858;4.392;2022-08-04T14:35:35;38.30;67.50
43679;DHT22;29279;50.858;4.392;2022-08-04T14:38:04;38.40;67.20
43679;DHT22;29279;50.858;4.392;2022-08-04T14:40:33;38.40;67.00
43679;DHT22;29279;50.858;4.392;2022-08-04T14:42:59;38.50;66.70
43679;DHT22;29279;50.858;4.392;2022-08-04T14:45:32;38.60;66.80
43679;DHT22;29279;50.858;4.392;2022-08-04T14:47:59;38.40;66.60
43679;DHT22;29279;50.858;4.392;2022-08-04T14:50:40;38.30;66.00
43679;DHT22;29279;50.858;4.392;2022-08-04T14:53:11;38.10;66.20
43679;DHT22;29279;50.858;4.392;2022-08-04T14:55:41;37.50;67.10
43679;DHT22;29279;50.858;4.392;2022-08-04T14:58:16;37.20;67.90
43679;DHT22;29279;50.858;4.392;2022-08-04T15:00:43;37.30;67.90
43679;DHT22;29279;50.858;4.392;2022-08-04T15:03:09;37.20;68.50
43679;DHT22;29279;50.858;4.392;2022-08-04T15:05:36;37.20;68.20
43679;DHT22;29279;50.858;4.392;2022-08-04T15:08:05;36.90;68.60
43679;DHT22;29279;50.858;4.392;2022-08-04T15:10:31;36.70;68.70
43679;DHT22;29279;50.858;4.392;2022-08-04T15:12:57;36.20;69.00
43679;DHT22;29279;50.858;4.392;2022-08-04T15:15:24;35.90;69.80
43679;DHT22;29279;50.858;4.392;2022-08-04T15:17:51;35.70;69.80
43679;DHT22;29279;50.858;4.392;2022-08-04T15:20:17;35.50;70.20
43679;DHT22;29279;50.858;4.392;2022-08-04T15:22:42;35.30;70.10
43679;DHT22;29279;50.858;4.392;2022-08-04T15:25:08;35.20;70.20
43679;DHT22;29279;50.858;4.392;2022-08-04T15:27:36;35.10;70.50
43679;DHT22;29279;50.858;4.392;2022-08-04T15:30:13;34.90;70.80
43679;DHT22;29279;50.858;4.392;2022-08-04T15:32:45;35.00;71.00
43679;DHT22;29279;50.858;4.392;2022-08-04T15:35:16;35.10;70.90
43679;DHT22;29279;50.858;4.392;2022-08-04T15:43:31;34.90;70.90
43679;DHT22;29279;50.858;4.392;2022-08-04T15:46:04;34.80;71.20
43679;DHT22;29279;50.858;4.392;2022-08-04T15:48:31;34.60;71.60
43679;DHT22;29279;50.858;4.392;2022-08-04T15:53:26;34.70;71.70
43679;DHT22;29279;50.858;4.392;2022-08-04T15:55:53;34.80;71.70
43679;DHT22;29279;50.858;4.392;2022-08-04T15:58:19;34.80;71.50
43679;DHT22;29279;50.858;4.392;2022-08-04T16:22:01;33.20;73.00
43679;DHT22;29279;50.858;4.392;2022-08-04T16:24:38;32.70;73.60
43679;DHT22;29279;50.858;4.392;2022-08-04T16:27:09;32.60;73.90
43679;DHT22;29279;50.858;4.392;2022-08-04T16:29:42;32.50;74.30
43679;DHT22;29279;50.858;4.392;2022-08-04T16:32:10;32.40;74.10
43679;DHT22;29279;50.858;4.392;2022-08-04T16:34:58;32.30;74.50
43679;DHT22;29279;50.858;4.392;2022-08-04T16:40:27;32.30;75.20
43679;DHT22;29279;50.858;4.392;2022-08-04T16:43:07;32.50;75.20
43679;DHT22;29279;50.858;4.392;2022-08-04T16:45:56;32.40;74.80
43679;DHT22;29279;50.858;4.392;2022-08-04T16:48:25;32.50;74.70
43679;DHT22;29279;50.858;4.392;2022-08-04T16:51:01;32.50;74.50
43679;DHT22;29279;50.858;4.392;2022-08-04T16:53:33;32.60;74.60
43679;DHT22;29279;50.858;4.392;2022-08-04T16:55:59;32.60;74.50
43679;DHT22;29279;50.858;4.392;2022-08-04T16:58:27;32.70;74.40
43679;DHT22;29279;50.858;4.392;2022-08-04T17:00:55;32.70;74.30
43679;DHT22;29279;50.858;4.392;2022-08-04T17:03:20;32.60;74.30
43679;DHT22;29279;50.858;4.392;2022-08-04T17:05:47;32.60;74.50
43679;DHT22;29279;50.858;4.392;2022-08-04T17:08:13;32.60;74.20
43679;DHT22;29279;50.858;4.392;2022-08-04T17:10:46;32.60;73.90
43679;DHT22;29279;50.858;4.392;2022-08-04T17:13:28;32.40;74.20
43679;DHT22;29279;50.858;4.392;2022-08-04T17:15:57;32.40;74.30
43679;DHT22;29279;50.858;4.392;2022-08-04T17:18:30;32.30;74.60
43679;DHT22;29279;50.858;4.392;2022-08-04T17:20:58;32.00;74.70
43679;DHT22;29279;50.858;4.392;2022-08-04T17:23:25;31.90;74.80
43679;DHT22;29279;50.858;4.392;2022-08-04T17:26:00;31.70;75.20
43679;DHT22;29279;50.858;4.392;2022-08-04T17:28:26;31.40;75.70
43679;DHT22;29279;50.858;4.392;2022-08-04T17:30:53;31.10;76.10
43679;DHT22;29279;50.858;4.392;2022-08-04T17:33:20;31.00;76.50
43679;DHT22;29279;50.858;4.392;2022-08-04T17:35:47;30.90;76.80
43679;DHT22;29279;50.858;4.392;2022-08-04T17:38:13;30.80;76.80
43679;DHT22;29279;50.858;4.392;2022-08-04T17:40:56;30.60;77.10
43679;DHT22;29279;50.858;4.392;2022-08-04T17:43:32;30.40;77.40
43679;DHT22;29279;50.858;4.392;2022-08-04T17:53:59;29.70;78.30
43679;DHT22;29279;50.858;4.392;2022-08-04T17:59:19;29.60;78.90
43679;DHT22;29279;50.858;4.392;2022-08-04T18:01:56;29.60;78.80
43679;DHT22;29279;50.858;4.392;2022-08-04T18:09:52;29.20;79.30
43679;DHT22;29279;50.858;4.392;2022-08-04T18:15:04;28.90;79.60
43679;DHT22;29279;50.858;4.392;2022-08-04T18:17:36;28.70;80.00
43679;DHT22;29279;50.858;4.392;2022-08-04T18:20:07;28.60;80.30
43679;DHT22;29279;50.858;4.392;2022-08-04T18:22:34;28.40;80.50
43679;DHT22;29279;50.858;4.392;2022-08-04T18:25:00;28.30;80.60
43679;DHT22;29279;50.858;4.392;2022-08-04T18:27:28;28.30;80.70
43679;DHT22;29279;50.858;4.392;2022-08-04T18:29:54;28.20;80.70
43679;DHT22;29279;50.858;4.392;2022-08-04T18:32:20;28.10;81.00
43679;DHT22;29279;50.858;4.392;2022-08-04T18:34:49;28.20;81.10
43679;DHT22;29279;50.858;4.392;2022-08-04T18:37:15;28.20;80.90
43679;DHT22;29279;50.858;4.392;2022-08-04T18:39:41;28.00;80.70
43679;DHT22;29279;50.858;4.392;2022-08-04T18:42:06;27.90;80.40
43679;DHT22;29279;50.858;4.392;2022-08-04T18:44:33;27.70;80.50
43679;DHT22;29279;50.858;4.392;2022-08-04T18:46:59;27.70;81.00
43679;DHT22;29279;50.858;4.392;2022-08-04T18:49:25;27.70;80.70
43679;DHT22;29279;50.858;4.392;2022-08-04T18:51:52;27.60;80.80
43679;DHT22;29279;50.858;4.392;2022-08-04T18:54:18;27.50;80.90
43679;DHT22;29279;50.858;4.392;2022-08-04T18:56:44;27.30;81.20
43679;DHT22;29279;50.858;4.392;2022-08-04T18:59:10;27.20;81.40
43679;DHT22;29279;50.858;4.392;2022-08-04T19:01:36;27.00;81.60
43679;DHT22;29279;50.858;4.392;2022-08-04T19:04:03;27.00;81.70
43679;DHT22;29279;50.858;4.392;2022-08-04T19:06:30;27.00;82.00
43679;DHT22;29279;50.858;4.392;2022-08-04T19:08:57;27.00;83.20
43679;DHT22;29279;50.858;4.392;2022-08-04T19:11:23;26.90;85.40
43679;DHT22;29279;50.858;4.392;2022-08-04T19:13:49;26.70;85.80
43679;DHT22;29279;50.858;4.392;2022-08-04T19:16:15;26.50;87.10
43679;DHT22;29279;50.858;4.392;2022-08-04T19:18:41;26.40;88.60
43679;DHT22;29279;50.858;4.392;2022-08-04T19:21:06;26.20;89.40
43679;DHT22;29279;50.858;4.392;2022-08-04T19:23:32;26.10;90.50
43679;DHT22;29279;50.858;4.392;2022-08-04T19:25:58;26.00;90.50
43679;DHT22;29279;50.858;4.392;2022-08-04T19:28:25;25.60;91.40
43679;DHT22;29279;50.858;4.392;2022-08-04T19:30:51;25.50;92.00
43679;DHT22;29279;50.858;4.392;2022-08-04T19:33:16;25.50;92.30
43679;DHT22;29279;50.858;4.392;2022-08-04T19:35:42;25.50;92.20
43679;DHT22;29279;50.858;4.392;2022-08-04T19:38:09;25.40;93.40
43679;DHT22;29279;50.858;4.392;2022-08-04T19:40:39;25.40;94.20
43679;DHT22;29279;50.858;4.392;2022-08-04T19:43:06;25.30;94.00
43679;DHT22;29279;50.858;4.392;2022-08-04T19:45:32;25.20;94.40
43679;DHT22;29279;50.858;4.392;2022-08-04T19:47:58;25.00;95.40
43679;DHT22;29279;50.858;4.392;2022-08-04T19:50:24;24.90;95.70
43679;DHT22;29279;50.858;4.392;2022-08-04T19:52:50;24.80;96.50
43679;DHT22;29279;50.858;4.392;2022-08-04T19:55:16;24.70;97.40
43679;DHT22;29279;50.858;4.392;2022-08-04T19:57:42;24.60;97.90
43679;DHT22;29279;50.858;4.392;2022-08-04T20:00:12;24.50;98.30
43679;DHT22;29279;50.858;4.392;2022-08-04T20:02:42;24.50;98.80
43679;DHT22;29279;50.858;4.392;2022-08-04T20:05:09;24.40;99.20
43679;DHT22;29279;50.858;4.392;2022-08-04T20:07:35;24.20;99.50
43679;DHT22;29279;50.858;4.392;2022-08-04T20:10:02;24.10;99.90
43679;DHT22;29279;50.858;4.392;2022-08-04T20:12:28;24.00;99.90
43679;DHT22;29279;50.858;4.392;2022-08-04T20:14:54;24.00;99.90
43679;DHT22;29279;50.858;4.392;2022-08-04T20:17:21;24.00;99.90
43679;DHT22;29279;50.858;4.392;2022-08-04T20:19:46;24.00;99.90
43679;DHT22;29279;50.858;4.392;2022-08-04T20:22:12;23.90;99.90
43679;DHT22;29279;50.858;4.392;2022-08-04T20:24:40;23.80;99.90
43679;DHT22;29279;50.858;4.392;2022-08-04T20:27:06;23.70;99.90
43679;DHT22;29279;50.858;4.392;2022-08-04T20:29:31;23.50;99.90
43679;DHT22;29279;50.858;4.392;2022-08-04T20:31:58;23.50;99.90
43679;DHT22;29279;50.858;4.392;2022-08-04T20:34:23;23.40;99.90
43679;DHT22;29279;50.858;4.392;2022-08-04T20:36:49;23.30;99.90
43679;DHT22;29279;50.858;4.392;2022-08-04T20:39:15;23.30;99.90
43679;DHT22;29279;50.858;4.392;2022-08-04T20:41:40;23.30;99.90
43679;DHT22;29279;50.858;4.392;2022-08-04T20:44:06;23.20;99.90
43679;DHT22;29279;50.858;4.392;2022-08-04T20:46:35;23.20;99.90
43679;DHT22;29279;50.858;4.392;2022-08-04T20:49:00;23.20;99.90
43679;DHT22;29279;50.858;4.392;2022-08-04T20:51:26;23.20;99.90
43679;DHT22;29279;50.858;4.392;2022-08-04T20:53:54;23.10;99.90
43679;DHT22;29279;50.858;4.392;2022-08-04T20:56:20;23.20;99.90
43679;DHT22;29279;50.858;4.392;2022-08-04T20:58:45;23.30;99.90
43679;DHT22;29279;50.858;4.392;2022-08-04T21:01:11;23.30;99.90
43679;DHT22;29279;50.858;4.392;2022-08-04T21:03:37;23.20;99.90
43679;DHT22;29279;50.858;4.392;2022-08-04T21:06:21;23.20;99.90
43679;DHT22;29279;50.858;4.392;2022-08-04T21:08:47;23.30;99.90
43679;DHT22;29279;50.858;4.392;2022-08-04T21:11:13;23.30;99.90